createdAt,value
2019-02-09T00:01:13.011Z,1.00
2019-02-09T00:03:42.706Z,1.00
2019-02-09T00:06:10.427Z,1.10
2019-02-09T00:08:38.050Z,1.10
2019-02-09T00:11:05.771Z,1.20
2019-02-09T00:13:33.399Z,1.20
2019-02-09T00:16:01.036Z,1.30
2019-02-09T00:18:28.662Z,1.40
2019-02-09T00:20:56.306Z,1.40
2019-02-09T00:23:23.939Z,1.50
2019-02-09T00:25:51.579Z,1.50
2019-02-09T00:28:19.206Z,1.40
2019-02-09T00:30:46.859Z,1.40
2019-02-09T00:33:14.494Z,1.40
2019-02-09T00:35:42.143Z,1.40
2019-02-09T00:38:09.775Z,1.40
2019-02-09T00:40:37.487Z,1.50
2019-02-09T00:43:05.183Z,1.60
2019-02-09T00:45:32.895Z,1.60
2019-02-09T00:48:00.528Z,1.40
2019-02-09T00:50:28.178Z,1.40
2019-02-09T00:52:56.846Z,1.20
2019-02-09T00:55:24.987Z,1.10
2019-02-09T00:57:52.618Z,1.10
2019-02-09T01:00:27.792Z,1.00
2019-02-09T01:02:56.523Z,1.00
2019-02-09T01:05:25.696Z,0.90
2019-02-09T01:07:53.346Z,0.90
2019-02-09T01:10:21.050Z,0.90
2019-02-09T01:12:48.686Z,1.00
2019-02-09T01:15:17.387Z,1.00
2019-02-09T01:17:45.296Z,1.10
2019-02-09T01:20:17.159Z,1.10
2019-02-09T01:22:47.126Z,1.10
2019-02-09T01:25:15.018Z,1.10
2019-02-09T01:27:42.965Z,1.10
2019-02-09T01:30:12.166Z,1.10
2019-02-09T01:32:40.783Z,1.10
2019-02-09T01:35:09.883Z,1.20
2019-02-09T01:37:37.527Z,1.20
2019-02-09T01:40:06.535Z,1.20
2019-02-09T01:42:35.128Z,1.30
2019-02-09T01:45:03.147Z,1.30
2019-02-09T01:47:30.807Z,1.40
2019-02-09T01:49:58.439Z,1.40
2019-02-09T01:52:26.086Z,1.50
2019-02-09T01:54:53.714Z,1.60
2019-02-09T01:57:21.350Z,1.60
2019-02-09T01:59:48.979Z,1.60
2019-02-09T02:02:16.616Z,1.60
2019-02-09T02:04:44.250Z,1.70
2019-02-09T02:07:11.887Z,1.70
2019-02-09T02:09:39.531Z,1.80
2019-02-09T02:12:07.228Z,1.80
2019-02-09T02:14:35.862Z,1.90
2019-02-09T02:17:03.466Z,1.80
2019-02-09T02:19:31.118Z,1.70
2019-02-09T02:21:58.738Z,1.70
2019-02-09T02:24:26.378Z,1.80
2019-02-09T02:26:54.002Z,1.70
2019-02-09T02:29:21.637Z,1.80
2019-02-09T02:31:49.271Z,1.80
2019-02-09T02:34:22.048Z,1.90
2019-02-09T02:36:49.688Z,1.70
2019-02-09T02:39:17.323Z,1.70
2019-02-09T02:41:44.955Z,1.60
2019-02-09T02:44:12.658Z,1.60
2019-02-09T02:46:40.307Z,1.60
2019-02-09T02:49:07.950Z,1.70
2019-02-09T02:51:35.579Z,1.70
2019-02-09T02:54:09.487Z,1.60
2019-02-09T02:56:37.116Z,1.60
2019-02-09T02:59:04.783Z,1.60
2019-02-09T03:01:32.463Z,1.70
2019-02-09T03:04:00.119Z,1.70
2019-02-09T03:06:27.827Z,1.70
2019-02-09T03:08:55.456Z,1.80
2019-02-09T03:11:23.122Z,1.80
2019-02-09T03:13:59.882Z,1.70
2019-02-09T03:16:27.595Z,1.80
2019-02-09T03:18:55.231Z,1.90
2019-02-09T03:21:22.874Z,1.90
2019-02-09T03:23:52.494Z,2.00
2019-02-09T03:26:20.142Z,2.10
2019-02-09T03:28:47.776Z,2.10
2019-02-09T03:31:15.492Z,2.10
2019-02-09T03:33:43.116Z,2.20
2019-02-09T03:36:10.777Z,2.20
2019-02-09T03:38:38.392Z,2.10
2019-02-09T03:41:06.039Z,2.10
2019-02-09T03:43:33.670Z,2.20
2019-02-09T03:46:01.312Z,2.10
2019-02-09T03:48:28.950Z,2.10
2019-02-09T03:50:56.600Z,2.20
2019-02-09T03:53:33.417Z,2.20
2019-02-09T03:56:01.055Z,2.10
2019-02-09T03:58:28.688Z,2.10
2019-02-09T04:00:56.327Z,2.20
2019-02-09T04:03:27.106Z,2.20
2019-02-09T04:05:54.756Z,2.10
2019-02-09T04:08:22.392Z,2.20
2019-02-09T04:10:50.043Z,2.20
2019-02-09T04:13:17.666Z,2.30
2019-02-09T04:15:45.475Z,2.40
2019-02-09T04:18:13.124Z,2.40
2019-02-09T04:20:40.753Z,2.50
2019-02-09T04:23:08.388Z,2.50
2019-02-09T04:25:36.014Z,2.40
2019-02-09T04:28:03.830Z,2.40
2019-02-09T04:30:32.239Z,2.50
2019-02-09T04:33:00.826Z,2.50
2019-02-09T04:35:28.537Z,2.50
2019-02-09T04:37:56.171Z,2.50
2019-02-09T04:40:24.875Z,2.50
2019-02-09T04:42:52.577Z,2.50
2019-02-09T04:45:20.490Z,2.50
2019-02-09T04:47:48.143Z,2.40
2019-02-09T04:52:43.156Z,2.60
2019-02-09T04:55:15.553Z,2.50
2019-02-09T04:57:43.195Z,2.50
2019-02-09T05:00:12.396Z,2.50
2019-02-09T05:02:40.024Z,2.50
2019-02-09T05:05:08.130Z,2.60
2019-02-09T05:07:35.772Z,2.50
2019-02-09T05:10:05.094Z,2.50
2019-02-09T05:12:32.731Z,2.40
2019-02-09T05:15:00.431Z,2.40
2019-02-09T05:17:28.094Z,2.40
2019-02-09T05:19:55.731Z,2.40
2019-02-09T05:22:23.366Z,2.40
2019-02-09T05:24:51.009Z,2.40
2019-02-09T05:27:18.636Z,2.50
2019-02-09T05:29:46.272Z,2.60
2019-02-09T05:32:13.898Z,2.70
2019-02-09T05:34:41.539Z,2.60
2019-02-09T05:37:09.166Z,2.70
2019-02-09T05:39:36.819Z,2.70
2019-02-09T05:42:04.445Z,2.70
2019-02-09T05:44:32.078Z,2.70
2019-02-09T05:46:59.709Z,2.70
2019-02-09T05:49:27.346Z,2.70
2019-02-09T05:51:54.977Z,2.80
2019-02-09T05:54:22.623Z,2.80
2019-02-09T05:56:50.250Z,2.80
2019-02-09T05:59:17.895Z,2.80
2019-02-09T06:01:45.526Z,2.80
2019-02-09T06:04:13.155Z,2.90
2019-02-09T06:06:40.794Z,2.80
2019-02-09T06:09:08.487Z,2.90
2019-02-09T06:11:36.126Z,3.10
2019-02-09T06:14:04.130Z,3.00
2019-02-09T06:16:31.801Z,3.00
2019-02-09T06:18:59.470Z,3.00
2019-02-09T06:21:27.110Z,3.00
2019-02-09T06:23:54.733Z,3.00
2019-02-09T06:26:22.378Z,3.00
2019-02-09T06:28:50.014Z,3.00
2019-02-09T06:31:17.651Z,3.00
2019-02-09T06:33:45.288Z,3.10
2019-02-09T06:36:12.930Z,3.00
2019-02-09T06:38:40.570Z,3.30
2019-02-09T06:41:08.234Z,3.40
2019-02-09T06:43:35.915Z,3.40
2019-02-09T06:46:03.720Z,3.30
2019-02-09T06:48:31.350Z,3.30
2019-02-09T06:50:58.990Z,3.30
2019-02-09T06:53:26.627Z,3.50
2019-02-09T06:55:54.266Z,3.60
2019-02-09T06:58:21.895Z,3.60
2019-02-09T07:00:49.526Z,3.90
2019-02-09T07:03:17.175Z,4.00
2019-02-09T07:05:44.810Z,4.00
2019-02-09T07:08:12.521Z,4.40
2019-02-09T07:10:40.175Z,4.50
2019-02-09T07:13:07.815Z,4.60
2019-02-09T07:15:36.214Z,4.60
2019-02-09T07:18:04.731Z,4.70
2019-02-09T07:20:32.358Z,4.80
2019-02-09T07:23:01.013Z,4.90
2019-02-09T07:25:28.635Z,4.90
2019-02-09T07:27:56.276Z,4.80
2019-02-09T07:30:25.448Z,4.80
2019-02-09T07:32:53.258Z,4.80
2019-02-09T07:35:20.888Z,5.00
2019-02-09T07:37:48.599Z,5.10
2019-02-09T07:40:17.798Z,5.10
2019-02-09T07:42:45.438Z,4.90
2019-02-09T07:45:14.637Z,5.10
2019-02-09T07:47:42.291Z,5.10
2019-02-09T07:50:11.378Z,5.30
2019-02-09T07:52:39.022Z,5.40
2019-02-09T07:55:08.207Z,5.50
2019-02-09T07:57:35.846Z,5.70
2019-02-09T08:00:05.034Z,5.90
2019-02-09T08:02:32.659Z,5.90
2019-02-09T08:05:00.299Z,5.90
2019-02-09T08:07:27.926Z,5.80
2019-02-09T08:09:55.574Z,5.90
2019-02-09T08:12:23.201Z,5.90
2019-02-09T08:17:18.200Z,6.10
2019-02-09T08:19:45.835Z,6.30
2019-02-09T08:24:40.835Z,6.50
2019-02-09T08:27:08.468Z,6.70
2019-02-09T08:29:36.106Z,6.80
2019-02-09T08:32:12.318Z,6.80
2019-02-09T08:34:33.770Z,6.90
2019-02-09T08:37:01.399Z,7.00
2019-02-09T08:39:29.034Z,7.20
2019-02-09T08:41:56.660Z,7.30
2019-02-09T08:44:24.300Z,7.50
2019-02-09T08:46:51.932Z,7.60
2019-02-09T08:51:46.939Z,7.60
2019-02-09T08:54:14.578Z,7.70
2019-02-09T08:56:42.208Z,7.70
2019-02-09T08:59:09.845Z,7.80
2019-02-09T09:01:37.471Z,7.90
2019-02-09T09:04:05.106Z,8.00
2019-02-09T09:06:32.734Z,8.20
2019-02-09T09:09:00.390Z,8.10
2019-02-09T09:11:28.028Z,8.00
2019-02-09T09:13:55.651Z,8.30
2019-02-09T09:16:23.289Z,8.30
2019-02-09T09:18:50.922Z,8.40
2019-02-09T09:21:18.554Z,8.40
2019-02-09T09:26:13.570Z,8.80
2019-02-09T09:28:41.207Z,8.80
2019-02-09T09:31:08.855Z,8.50
2019-02-09T09:33:36.482Z,8.30
2019-02-09T09:36:04.390Z,8.20
2019-02-09T09:38:32.023Z,8.20
2019-02-09T09:40:59.675Z,8.40
2019-02-09T09:43:27.307Z,8.50
2019-02-09T09:45:54.949Z,8.60
2019-02-09T09:48:22.647Z,8.70
2019-02-09T09:50:50.366Z,8.70
2019-02-09T09:53:17.999Z,8.90
2019-02-09T09:55:45.643Z,9.10
2019-02-09T09:58:13.648Z,9.20
2019-02-09T10:00:41.271Z,9.30
2019-02-09T10:03:08.992Z,9.20
2019-02-09T10:05:36.629Z,9.30
2019-02-09T10:08:05.938Z,9.40
2019-02-09T10:10:33.558Z,9.20
2019-02-09T10:13:01.207Z,9.00
2019-02-09T10:15:28.906Z,8.80
2019-02-09T10:17:56.554Z,8.60
2019-02-09T10:20:24.937Z,8.60
2019-02-09T10:22:52.577Z,8.50
2019-02-09T10:25:20.276Z,8.40
2019-02-09T10:27:48.078Z,8.40
2019-02-09T10:30:17.238Z,8.40
2019-02-09T10:32:44.887Z,8.50
2019-02-09T10:35:13.691Z,8.60
2019-02-09T10:37:41.402Z,8.70
2019-02-09T10:40:10.898Z,8.80
2019-02-09T10:42:38.542Z,8.60
2019-02-09T10:45:07.719Z,8.50
2019-02-09T10:47:35.359Z,8.60
2019-02-09T10:52:30.359Z,9.40
2019-02-09T10:54:57.994Z,9.30
2019-02-09T10:57:25.642Z,9.60
2019-02-09T10:59:53.271Z,9.60
2019-02-09T11:02:22.131Z,9.60
2019-02-09T11:04:49.830Z,9.70
2019-02-09T11:07:17.460Z,9.80
2019-02-09T11:09:45.098Z,9.70
2019-02-09T11:12:12.726Z,10.00
2019-02-09T11:14:40.471Z,9.50
2019-02-09T11:17:08.134Z,9.20
2019-02-09T11:19:35.798Z,9.60
2019-02-09T11:22:03.418Z,9.50
2019-02-09T11:24:31.058Z,9.80
2019-02-09T11:26:58.691Z,10.20
2019-02-09T11:29:26.343Z,10.50
2019-02-09T11:31:53.973Z,10.50
2019-02-09T11:34:21.622Z,10.80
2019-02-09T11:39:16.630Z,11.10
2019-02-09T11:41:44.271Z,10.70
2019-02-09T11:44:11.938Z,10.40
2019-02-09T11:46:39.570Z,10.30
2019-02-09T11:49:07.215Z,10.10
2019-02-09T11:51:34.854Z,9.90
2019-02-09T11:54:02.491Z,9.70
2019-02-09T11:56:30.118Z,9.60
2019-02-09T11:58:57.746Z,9.50
2019-02-09T12:01:25.374Z,9.60
2019-02-09T12:03:53.011Z,9.60
2019-02-09T12:06:20.643Z,9.60
2019-02-09T12:08:48.274Z,9.60
2019-02-09T12:11:15.923Z,9.70
2019-02-09T12:13:43.551Z,9.70
2019-02-09T12:16:11.195Z,9.90
2019-02-09T12:18:38.826Z,10.00
2019-02-09T12:21:06.471Z,10.00
2019-02-09T12:23:34.173Z,9.90
2019-02-09T12:26:01.810Z,9.80
2019-02-09T12:28:29.443Z,9.90
2019-02-09T12:30:57.089Z,10.10
2019-02-09T12:33:27.641Z,10.50
2019-02-09T12:35:55.282Z,10.80
2019-02-09T12:40:50.282Z,11.40
2019-02-09T12:43:17.918Z,11.70
2019-02-09T12:45:45.580Z,11.90
2019-02-09T12:48:13.194Z,12.10
2019-02-09T12:50:40.855Z,11.60
2019-02-09T12:53:08.576Z,12.00
2019-02-09T12:55:36.274Z,11.90
2019-02-09T12:58:04.383Z,12.30
2019-02-09T13:00:35.769Z,11.60
2019-02-09T13:03:10.679Z,11.40
2019-02-09T13:05:38.319Z,10.50
2019-02-09T13:08:06.022Z,10.60
2019-02-09T13:10:33.654Z,11.10
2019-02-09T13:13:06.527Z,10.90
2019-02-09T13:15:34.631Z,10.70
2019-02-09T13:18:02.274Z,11.10
2019-02-09T13:20:30.479Z,10.90
2019-02-09T13:23:05.334Z,10.50
2019-02-09T13:25:33.042Z,10.30
2019-02-09T13:28:00.698Z,10.50
2019-02-09T13:30:29.616Z,10.30
2019-02-09T13:32:57.246Z,9.90
2019-02-09T13:35:24.870Z,9.50
2019-02-09T13:37:52.509Z,9.40
2019-02-09T13:40:21.219Z,10.10
2019-02-09T13:42:49.768Z,10.60
2019-02-09T13:45:35.568Z,10.70
2019-02-09T13:48:03.278Z,10.80
2019-02-09T13:50:31.791Z,11.30
2019-02-09T13:53:02.492Z,11.30
2019-02-09T13:55:30.118Z,11.40
2019-02-09T13:57:57.758Z,10.80
2019-02-09T14:00:26.931Z,10.90
2019-02-09T14:02:57.018Z,11.00
2019-02-09T14:05:24.658Z,11.00
2019-02-09T14:07:52.474Z,10.70
2019-02-09T14:10:21.652Z,10.30
2019-02-09T14:12:57.193Z,9.90
2019-02-09T14:15:28.586Z,9.60
2019-02-09T14:17:56.694Z,9.50
2019-02-09T14:20:24.327Z,9.30
2019-02-09T14:22:51.981Z,9.10
2019-02-09T14:25:20.083Z,9.10
2019-02-09T14:27:49.155Z,9.00
2019-02-09T14:30:20.802Z,9.00
2019-02-09T14:32:57.611Z,9.00
2019-02-09T14:35:25.334Z,8.90
2019-02-09T14:37:53.346Z,8.80
2019-02-09T14:40:28.542Z,8.60
2019-02-09T14:42:57.110Z,8.40
2019-02-09T14:45:32.350Z,8.10
2019-02-09T14:47:59.977Z,8.00
2019-02-09T14:50:27.615Z,7.90
2019-02-09T14:52:55.246Z,7.90
2019-02-09T14:55:24.439Z,7.90
2019-02-09T14:57:52.075Z,7.90
2019-02-09T15:00:24.107Z,7.90
2019-02-09T15:02:53.996Z,7.80
2019-02-09T15:05:21.179Z,7.80
2019-02-09T15:07:48.982Z,7.80
2019-02-09T15:10:18.163Z,7.90
2019-02-09T15:12:47.791Z,7.90
2019-02-09T15:15:16.976Z,7.80
2019-02-09T15:17:44.603Z,7.80
2019-02-09T15:20:13.778Z,7.90
2019-02-09T15:22:41.415Z,7.80
2019-02-09T15:27:36.435Z,7.60
2019-02-09T15:30:05.691Z,7.60
2019-02-09T15:32:33.324Z,7.60
2019-02-09T15:35:00.967Z,7.60
2019-02-09T15:37:28.602Z,7.60
2019-02-09T15:39:56.244Z,7.60
2019-02-09T15:42:23.871Z,7.60
2019-02-09T15:44:51.522Z,7.60
2019-02-09T15:47:19.155Z,7.60
2019-02-09T15:49:46.788Z,7.50
2019-02-09T15:52:14.426Z,7.40
2019-02-09T15:54:42.055Z,7.40
2019-02-09T15:57:09.695Z,7.40
2019-02-09T15:59:37.321Z,7.40
2019-02-09T16:02:05.028Z,7.40
2019-02-09T16:04:37.695Z,7.30
2019-02-09T16:07:05.334Z,7.30
2019-02-09T16:09:32.963Z,7.20
2019-02-09T16:12:00.606Z,7.20
2019-02-09T16:14:29.170Z,7.10
2019-02-09T16:16:56.815Z,7.00
2019-02-09T16:19:24.442Z,7.00
2019-02-09T16:21:52.107Z,7.00
2019-02-09T16:24:19.734Z,7.00
2019-02-09T16:26:47.374Z,7.00
2019-02-09T16:29:17.155Z,7.00
2019-02-09T16:31:44.796Z,7.00
2019-02-09T16:34:16.490Z,6.90
2019-02-09T16:36:44.125Z,6.90
2019-02-09T16:39:11.757Z,6.90
2019-02-09T16:41:39.399Z,6.90
2019-02-09T16:44:07.028Z,6.90
2019-02-09T16:46:34.662Z,6.80
2019-02-09T16:49:02.291Z,6.80
2019-02-09T16:51:29.930Z,6.80
2019-02-09T16:53:57.563Z,6.70
2019-02-09T16:56:25.191Z,6.70
2019-02-09T16:58:52.862Z,6.70
2019-02-09T17:01:20.533Z,6.70
2019-02-09T17:03:48.214Z,6.70
2019-02-09T17:06:15.843Z,6.80
2019-02-09T17:08:43.490Z,6.70
2019-02-09T17:11:11.116Z,6.70
2019-02-09T17:13:38.763Z,6.70
2019-02-09T17:16:06.462Z,6.70
2019-02-09T17:18:34.123Z,6.60
2019-02-09T17:21:01.743Z,6.60
2019-02-09T17:23:29.387Z,6.50
2019-02-09T17:25:57.018Z,6.40
2019-02-09T17:28:24.663Z,6.30
2019-02-09T17:30:52.290Z,6.30
2019-02-09T17:33:20.909Z,6.20
2019-02-09T17:35:49.359Z,6.10
2019-02-09T17:38:16.997Z,6.10
2019-02-09T17:40:45.898Z,6.10
2019-02-09T17:43:13.532Z,6.10
2019-02-09T17:45:51.963Z,6.20
2019-02-09T17:48:19.682Z,6.10
2019-02-09T17:50:47.350Z,6.20
2019-02-09T17:53:15.164Z,6.20
2019-02-09T17:55:42.874Z,6.10
2019-02-09T17:58:10.665Z,6.10
2019-02-09T18:00:51.980Z,6.20
2019-02-09T18:03:20.629Z,6.20
2019-02-09T18:05:48.275Z,6.10
2019-02-09T18:08:15.898Z,6.10
2019-02-09T18:10:43.543Z,6.00
2019-02-09T18:13:11.165Z,6.00
2019-02-09T18:15:38.807Z,6.00
2019-02-09T18:18:06.606Z,5.90
2019-02-09T18:20:34.242Z,5.90
2019-02-09T18:23:01.870Z,5.90
2019-02-09T18:25:29.514Z,5.90
2019-02-09T18:27:57.212Z,5.90
2019-02-09T18:30:28.690Z,5.80
2019-02-09T18:33:04.541Z,5.80
2019-02-09T18:35:32.179Z,5.80
2019-02-09T18:37:59.826Z,5.70
2019-02-09T18:40:27.726Z,5.70
2019-02-09T18:42:56.330Z,5.80
2019-02-09T18:45:30.672Z,5.90
2019-02-09T18:47:58.372Z,5.80
2019-02-09T18:50:26.674Z,5.80
2019-02-09T18:52:56.696Z,5.70
2019-02-09T18:55:25.306Z,5.80
2019-02-09T18:57:52.936Z,5.70
2019-02-09T19:00:28.219Z,5.70
2019-02-09T19:02:57.010Z,5.70
2019-02-09T19:05:24.686Z,5.70
2019-02-09T19:07:52.384Z,5.80
2019-02-09T19:10:21.195Z,5.80
2019-02-09T19:12:49.888Z,5.90
2019-02-09T19:15:19.094Z,6.10
2019-02-09T19:17:46.814Z,6.10
2019-02-09T19:20:18.777Z,6.20
2019-02-09T19:22:46.430Z,6.20
2019-02-09T19:25:15.395Z,6.20
2019-02-09T19:27:43.021Z,6.20
2019-02-09T19:30:12.186Z,6.20
2019-02-09T19:32:39.835Z,6.20
2019-02-09T19:35:12.080Z,6.20
2019-02-09T19:37:37.302Z,6.40
2019-02-09T19:40:06.467Z,6.40
2019-02-09T19:42:36.086Z,6.50
2019-02-09T19:45:05.587Z,6.50
2019-02-09T19:47:33.230Z,6.60
2019-02-09T19:50:00.867Z,6.60
2019-02-09T19:52:28.514Z,6.50
2019-02-09T19:54:56.143Z,6.40
2019-02-09T19:57:23.799Z,6.30
2019-02-09T19:59:51.429Z,6.30
2019-02-09T20:02:20.042Z,6.20
2019-02-09T20:04:49.635Z,6.10
2019-02-09T20:07:17.274Z,6.00
2019-02-09T20:09:44.910Z,6.00
2019-02-09T20:12:12.551Z,6.00
2019-02-09T20:14:40.178Z,5.90
2019-02-09T20:17:07.818Z,5.90
2019-02-09T20:19:35.442Z,5.80
2019-02-09T20:22:03.082Z,5.90
2019-02-09T20:24:37.999Z,5.80
2019-02-09T20:27:05.638Z,5.80
2019-02-09T20:29:33.266Z,5.80
2019-02-09T20:32:00.907Z,5.80
2019-02-09T20:34:28.529Z,5.80
2019-02-09T20:36:56.170Z,5.70
2019-02-09T20:39:23.798Z,5.80
2019-02-09T20:41:51.439Z,5.80
2019-02-09T20:44:28.399Z,5.70
2019-02-09T20:46:56.044Z,5.70
2019-02-09T20:49:23.670Z,5.60
2019-02-09T20:51:51.322Z,5.60
2019-02-09T20:54:18.971Z,5.60
2019-02-09T20:56:46.603Z,5.60
2019-02-09T20:59:14.242Z,5.60
2019-02-09T21:01:41.871Z,5.60
2019-02-09T21:04:09.514Z,5.60
2019-02-09T21:06:37.142Z,5.60
2019-02-09T21:09:06.555Z,5.60
2019-02-09T21:11:34.193Z,5.50
2019-02-09T21:14:07.828Z,5.60
2019-02-09T21:16:35.458Z,5.60
2019-02-09T21:19:03.275Z,5.60
2019-02-09T21:21:30.898Z,5.70
2019-02-09T21:24:00.541Z,5.70
2019-02-09T21:26:28.150Z,5.60
2019-02-09T21:28:55.799Z,5.60
2019-02-09T21:31:23.418Z,5.70
2019-02-09T21:33:51.066Z,5.70
2019-02-09T21:36:18.689Z,5.70
2019-02-09T21:38:46.339Z,5.70
2019-02-09T21:41:13.966Z,5.70
2019-02-09T21:43:41.607Z,5.70
2019-02-09T21:46:09.239Z,5.70
2019-02-09T21:48:36.878Z,5.70
2019-02-09T21:51:04.506Z,5.80
2019-02-09T21:53:38.194Z,5.70
2019-02-09T21:56:05.819Z,5.70
2019-02-09T21:58:33.455Z,5.70
2019-02-09T22:01:01.102Z,5.70
2019-02-09T22:03:28.750Z,5.80
2019-02-09T22:05:56.387Z,5.80
2019-02-09T22:08:24.010Z,5.80
2019-02-09T22:10:51.654Z,5.80
2019-02-09T22:13:19.300Z,5.70
2019-02-09T22:15:46.976Z,5.60
2019-02-09T22:18:14.635Z,5.60
2019-02-09T22:20:42.282Z,5.50
2019-02-09T22:23:09.930Z,5.40
2019-02-09T22:25:37.562Z,5.20
2019-02-09T22:28:05.662Z,5.10
2019-02-09T22:30:33.366Z,4.90
2019-02-09T22:33:01.200Z,4.80
2019-02-09T22:35:29.021Z,4.70
2019-02-09T22:37:56.903Z,4.90
2019-02-09T22:40:28.381Z,4.80
2019-02-09T22:42:56.010Z,4.90
2019-02-09T22:45:24.124Z,5.00
2019-02-09T22:47:51.818Z,5.00
2019-02-09T22:50:20.747Z,5.00
2019-02-09T22:52:50.358Z,5.00
2019-02-09T22:55:19.063Z,5.00
2019-02-09T22:57:46.759Z,5.00
2019-02-09T23:00:15.929Z,5.00
2019-02-09T23:02:43.570Z,5.00
2019-02-09T23:05:12.735Z,5.00
2019-02-09T23:07:40.380Z,5.00
2019-02-09T23:10:09.282Z,5.10
2019-02-09T23:12:36.918Z,5.10
2019-02-09T23:15:06.121Z,5.10
2019-02-09T23:17:33.762Z,5.20
2019-02-09T23:20:01.383Z,5.30
2019-02-09T23:22:29.987Z,5.20
2019-02-09T23:24:57.615Z,5.10
2019-02-09T23:27:25.254Z,5.00
2019-02-09T23:29:52.886Z,4.90
2019-02-09T23:32:20.529Z,4.70
2019-02-09T23:34:48.157Z,4.50
2019-02-09T23:37:15.794Z,4.40
2019-02-09T23:39:43.418Z,4.30
2019-02-09T23:42:11.066Z,4.30
2019-02-09T23:44:38.697Z,4.20
2019-02-09T23:47:06.342Z,4.10
2019-02-09T23:49:33.974Z,4.10
2019-02-09T23:52:01.623Z,4.10
2019-02-09T23:54:29.246Z,4.10
2019-02-09T23:56:56.880Z,4.10
2019-02-09T23:59:24.524Z,4.20
